Time;durP1;ratioP1;P1;durP2;ratioP2;P2;SDS_P1;SDS_P2;PMS_P1;PMS_P2;Temp;Humidity;BMP_temperature;BMP_pressure;BME280_temperature;BME280_humidity;BME280_pressure;Samples;Min_cycle;Max_cycle;Signal;HPM_P1;HPM_P2
2023/06/06 00:01:43;;;;;;;4.37;3.43;;;;;;;17.22;55.50;96215.06;4990420;28;20176;-69
2023/06/06 00:04:09;;;;;;;11.10;3.63;;;;;;;17.29;55.49;96213.66;4990182;28;20494;-67
2023/06/06 00:06:35;;;;;;;7.80;3.77;;;;;;;17.32;55.53;96216.06;4990514;28;20180;-69
2023/06/06 00:09:03;;;;;;;3.80;3.50;;;;;;;17.34;55.65;96216.81;4990153;28;20254;-71
2023/06/06 00:11:28;;;;;;;3.60;3.30;;;;;;;17.28;55.26;96208.44;4990058;28;20482;-69
2023/06/06 00:13:56;;;;;;;8.17;3.83;;;;;;;17.32;55.12;96207.25;4990060;28;20441;-69
2023/06/06 00:16:27;;;;;;;5.43;3.87;;;;;;;17.22;55.60;96211.53;4990329;28;20169;-69
2023/06/06 00:18:53;;;;;;;7.67;3.83;;;;;;;17.27;55.58;96210.25;4990436;28;20432;-70
2023/06/06 00:21:21;;;;;;;7.83;3.77;;;;;;;17.17;56.08;96211.03;4990250;28;20412;-69
2023/06/06 00:23:47;;;;;;;21.03;5.23;;;;;;;17.07;56.31;96210.84;4989911;28;20829;-68
2023/06/06 00:26:12;;;;;;;17.80;6.10;;;;;;;17.16;56.25;96207.53;4990290;28;20410;-69
2023/06/06 00:28:38;;;;;;;4.90;3.40;;;;;;;17.11;55.99;96202.56;4990256;28;20196;-68
2023/06/06 00:31:03;;;;;;;5.80;3.83;;;;;;;17.01;56.29;96198.91;4990158;28;20292;-69
2023/06/06 00:33:29;;;;;;;6.90;3.57;;;;;;;17.21;56.06;96197.44;4990006;28;20235;-69
2023/06/06 00:35:54;;;;;;;4.37;3.97;;;;;;;16.98;56.60;96195.63;4990416;28;20258;-69
2023/06/06 00:38:20;;;;;;;10.13;3.87;;;;;;;17.26;55.98;96195.28;4990444;28;20193;-69
2023/06/06 00:40:45;;;;;;;5.10;3.27;;;;;;;17.16;56.21;96204.88;4990264;28;20173;-68
2023/06/06 00:43:11;;;;;;;9.43;4.77;;;;;;;17.26;56.06;96197.94;4989933;28;20248;-69
2023/06/06 00:45:36;;;;;;;4.37;3.93;;;;;;;17.27;55.87;96198.81;4989817;28;20169;-69
2023/06/06 00:48:02;;;;;;;6.20;4.10;;;;;;;17.05;56.63;96203.00;4989810;28;20223;-68
2023/06/06 00:50:28;;;;;;;5.17;3.90;;;;;;;16.90;56.76;96204.13;4989825;28;20279;-69
2023/06/06 00:52:53;;;;;;;20.83;6.00;;;;;;;17.18;56.34;96208.28;4989906;28;20253;-69
2023/06/06 00:55:20;;;;;;;11.87;4.13;;;;;;;17.16;56.13;96194.28;4989951;28;20172;-69
2023/06/06 00:57:47;;;;;;;8.60;5.00;;;;;;;17.06;56.38;96198.56;4990255;28;20172;-69
2023/06/06 01:00:14;;;;;;;10.83;4.43;;;;;;;17.07;56.46;96198.44;4989969;28;20466;-68
2023/06/06 01:02:43;;;;;;;29.57;7.70;;;;;;;17.01;56.55;96201.56;4989909;28;20523;-69
2023/06/06 01:05:10;;;;;;;3.93;3.63;;;;;;;17.01;56.91;96201.56;4989835;28;21241;-68
2023/06/06 01:07:38;;;;;;;16.90;4.10;;;;;;;16.99;57.17;96203.47;4991007;28;20452;-68
2023/06/06 01:10:07;;;;;;;5.93;3.90;;;;;;;16.85;56.80;96199.16;4991280;28;20464;-69
2023/06/06 01:13:00;;;;;;;7.50;3.93;;;;;;;16.96;56.55;96195.75;4989513;28;20418;-69
2023/06/06 01:15:33;;;;;;;9.33;4.50;;;;;;;16.98;56.87;96192.97;4991221;28;20924;-68
2023/06/06 01:18:01;;;;;;;8.23;3.37;;;;;;;16.87;56.97;96194.59;4991654;28;20416;-69
2023/06/06 01:20:28;;;;;;;8.43;4.13;;;;;;;17.02;56.37;96197.09;4990141;28;20411;-68
2023/06/06 01:22:54;;;;;;;7.20;4.50;;;;;;;17.08;56.15;96194.84;4989803;28;20427;-69
2023/06/06 01:25:23;;;;;;;5.80;4.07;;;;;;;16.95;56.81;96198.50;4989406;28;20404;-69
2023/06/06 01:27:53;;;;;;;10.30;4.40;;;;;;;16.91;57.10;96200.50;4989392;28;20416;-69
2023/06/06 01:30:21;;;;;;;12.30;4.20;;;;;;;16.95;56.52;96194.03;4987873;28;20826;-69
2023/06/06 01:33:08;;;;;;;5.67;3.63;;;;;;;16.79;57.35;96193.47;4989552;28;20474;-70
2023/06/06 01:35:58;;;;;;;14.90;4.90;;;;;;;16.78;57.03;96197.88;4994299;28;20392;-70
2023/06/06 01:38:26;;;;;;;10.93;3.80;;;;;;;16.69;57.14;96195.91;4999035;28;20961;-70
2023/06/06 01:40:54;;;;;;;21.60;6.00;;;;;;;16.73;56.71;96192.91;4994641;28;20423;-69
2023/06/06 01:43:23;;;;;;;12.00;5.20;;;;;;;16.67;57.39;96197.81;4994328;28;20416;-69
2023/06/06 01:45:50;;;;;;;6.60;3.90;;;;;;;16.59;57.77;96195.72;4992749;28;20434;-69
2023/06/06 01:48:18;;;;;;;6.33;4.00;;;;;;;16.52;57.08;96197.09;4989154;28;21179;-69
2023/06/06 01:50:44;;;;;;;20.97;5.33;;;;;;;16.50;57.01;96202.50;4988630;28;20467;-68
2023/06/06 01:53:09;;;;;;;5.13;4.50;;;;;;;16.63;56.89;96198.97;4988671;28;20696;-69
2023/06/06 01:55:36;;;;;;;6.27;4.13;;;;;;;16.48;57.30;96195.63;4988366;28;20173;-69
2023/06/06 01:58:03;;;;;;;4.73;4.03;;;;;;;16.46;57.50;96209.00;4988471;28;20203;-69
2023/06/06 02:00:29;;;;;;;5.20;4.50;;;;;;;16.24;57.37;96204.31;4988596;28;20459;-69
2023/06/06 02:02:54;;;;;;;6.20;4.17;;;;;;;16.30;57.54;96203.91;4987998;28;20420;-69
2023/06/06 02:05:20;;;;;;;5.93;4.00;;;;;;;16.18;57.66;96217.13;4987855;28;20209;-68
2023/06/06 02:07:46;;;;;;;22.87;5.90;;;;;;;16.29;57.59;96211.94;4988106;28;20173;-69
2023/06/06 02:10:12;;;;;;;22.40;6.53;;;;;;;16.33;57.08;96223.19;4987948;28;20470;-69
2023/06/06 02:12:37;;;;;;;23.50;5.63;;;;;;;16.21;57.03;96223.09;4987822;28;20211;-69
2023/06/06 02:15:05;;;;;;;16.30;6.03;;;;;;;16.56;56.39;96217.13;4987653;28;20173;-69
2023/06/06 02:17:30;;;;;;;21.47;6.30;;;;;;;16.43;56.63;96214.47;4988193;28;20173;-68
2023/06/06 02:19:56;;;;;;;17.33;5.90;;;;;;;16.27;57.35;96217.34;4989419;28;20428;-69
2023/06/06 02:22:22;;;;;;;12.80;5.10;;;;;;;16.19;57.46;96217.03;4989516;28;20188;-69
2023/06/06 02:24:49;;;;;;;8.90;4.20;;;;;;;16.29;57.09;96215.44;4989595;28;20200;-70
2023/06/06 02:27:15;;;;;;;30.20;8.63;;;;;;;16.28;57.28;96216.41;4988465;28;20187;-69
2023/06/06 02:29:40;;;;;;;13.33;5.33;;;;;;;16.20;57.87;96220.53;4987965;28;20439;-69
2023/06/06 02:32:06;;;;;;;24.63;5.03;;;;;;;16.18;58.08;96218.00;4988103;28;20204;-67
2023/06/06 02:34:32;;;;;;;23.80;6.10;;;;;;;16.18;58.16;96214.50;4987684;28;20161;-70
2023/06/06 02:36:59;;;;;;;25.73;6.70;;;;;;;16.26;57.88;96215.66;4987805;28;20172;-69
2023/06/06 02:39:25;;;;;;;26.57;6.93;;;;;;;16.23;57.70;96220.34;4988022;28;20196;-68
2023/06/06 02:41:50;;;;;;;16.20;6.80;;;;;;;16.14;57.87;96219.16;4987743;28;20412;-69
2023/06/06 02:44:17;;;;;;;17.00;6.10;;;;;;;16.20;57.76;96220.53;4987442;28;20212;-69
2023/06/06 02:46:43;;;;;;;3.57;3.23;;;;;;;17.44;63.11;96218.78;4987765;28;20219;-69
2023/06/06 02:49:09;;;;;;;7.57;3.60;;;;;;;17.85;58.35;96222.81;4988803;28;20432;-68
2023/06/06 02:51:36;;;;;;;18.07;5.20;;;;;;;18.25;57.42;96223.25;4988193;28;20454;-69
2023/06/06 02:54:02;;;;;;;9.23;4.60;;;;;;;18.46;54.19;96225.19;4987099;28;20407;-69
2023/06/06 02:56:27;;;;;;;8.83;4.03;;;;;;;18.49;54.91;96217.81;4987963;28;20921;-69
2023/06/06 02:58:53;;;;;;;22.10;6.63;;;;;;;18.60;53.12;96225.81;4987267;28;20299;-69
2023/06/06 03:01:20;;;;;;;16.03;5.10;;;;;;;18.43;52.79;96233.44;4987526;28;20367;-69
2023/06/06 03:03:47;;;;;;;18.10;5.50;;;;;;;18.45;52.68;96231.47;4986668;28;20176;-69
2023/06/06 03:06:15;;;;;;;93.87;11.67;;;;;;;18.36;52.37;96227.75;4987387;28;20436;-69
2023/06/06 03:08:42;;;;;;;7.07;4.50;;;;;;;18.34;51.69;96237.63;4987176;28;21129;-69
2023/06/06 03:11:08;;;;;;;9.40;3.97;;;;;;;18.47;52.32;96232.19;4987183;28;20498;-69
2023/06/06 03:13:33;;;;;;;62.83;11.07;;;;;;;18.46;51.93;96234.00;4986693;28;20479;-69
2023/06/06 03:15:59;;;;;;;5.73;4.00;;;;;;;18.37;52.05;96234.72;4986295;28;20177;-69
2023/06/06 03:18:25;;;;;;;8.67;4.50;;;;;;;18.41;52.76;96239.69;4986547;28;20200;-67
2023/06/06 03:20:51;;;;;;;14.07;6.50;;;;;;;18.40;51.32;96239.78;4987245;28;20275;-68
2023/06/06 03:23:17;;;;;;;50.87;10.40;;;;;;;18.26;51.47;96240.88;4986575;28;20523;-68
2023/06/06 03:25:44;;;;;;;17.73;5.87;;;;;;;18.26;52.26;96245.34;4986690;28;20276;-67
2023/06/06 03:28:10;;;;;;;24.33;6.00;;;;;;;18.32;51.57;96239.56;4987307;28;20201;-69
2023/06/06 03:30:36;;;;;;;6.17;5.20;;;;;;;18.46;51.82;96239.31;4986843;28;20495;-67
2023/06/06 03:33:03;;;;;;;16.70;5.40;;;;;;;18.60;50.35;96241.75;4987318;28;20947;-69
2023/06/06 03:35:32;;;;;;;17.97;6.80;;;;;;;18.52;51.40;96244.19;4986070;28;20202;-69
2023/06/06 03:37:58;;;;;;;22.77;5.77;;;;;;;18.55;51.05;96240.44;4987369;28;20444;-69
2023/06/06 03:40:24;;;;;;;21.73;5.63;;;;;;;18.67;50.66;96250.09;4987366;28;20448;-69
2023/06/06 03:42:50;;;;;;;13.60;5.00;;;;;;;18.58;50.91;96251.66;4986634;28;20436;-69
2023/06/06 03:45:20;;;;;;;16.10;6.13;;;;;;;18.65;50.71;96249.38;4987040;28;20426;-69
2023/06/06 03:47:46;;;;;;;12.20;5.10;;;;;;;18.53;50.68;96250.31;4987812;28;20193;-69
2023/06/06 03:50:11;;;;;;;18.63;5.53;;;;;;;18.50;50.30;96255.91;4987677;28;20489;-69
2023/06/06 03:52:41;;;;;;;17.27;5.63;;;;;;;18.59;50.62;96250.69;4987446;28;20173;-69
2023/06/06 03:55:07;;;;;;;55.03;10.47;;;;;;;18.66;50.44;96251.06;4987315;28;20231;-70
2023/06/06 03:57:34;;;;;;;29.53;7.07;;;;;;;18.65;50.56;96254.69;4990045;28;20423;-68
2023/06/06 04:00:00;;;;;;;24.77;6.57;;;;;;;18.71;49.93;96243.56;4988885;28;20436;-69
2023/06/06 04:02:27;;;;;;;12.93;5.70;;;;;;;18.77;49.88;96259.06;4988403;28;20435;-69
2023/06/06 04:04:54;;;;;;;21.57;5.37;;;;;;;18.87;49.60;96255.66;4988243;28;20470;-69
2023/06/06 04:07:20;;;;;;;6.87;4.87;;;;;;;18.89;49.60;96259.91;4996899;28;20411;-68
2023/06/06 04:09:45;;;;;;;9.10;4.60;;;;;;;19.04;48.88;96260.50;4997902;28;20510;-69
2023/06/06 04:12:10;;;;;;;16.90;5.87;;;;;;;19.03;48.75;96256.13;4996052;28;20491;-69
2023/06/06 04:14:36;;;;;;;10.53;5.50;;;;;;;18.76;49.37;96257.38;4986474;28;20173;-69
2023/06/06 04:17:02;;;;;;;5.23;4.20;;;;;;;18.62;49.39;96261.09;4986994;28;20235;-69
2023/06/06 04:19:28;;;;;;;6.90;4.67;;;;;;;18.96;49.10;96252.28;4986489;28;20256;-71
2023/06/06 04:21:57;;;;;;;6.70;4.47;;;;;;;19.21;48.59;96261.81;4986191;28;20272;-68
2023/06/06 04:24:23;;;;;;;27.70;6.27;;;;;;;19.35;48.23;96261.53;4986241;28;20177;-68
2023/06/06 04:26:48;;;;;;;12.03;5.47;;;;;;;19.34;48.30;96265.13;4986440;28;21233;-69
2023/06/06 04:29:14;;;;;;;36.87;7.20;;;;;;;19.39;47.76;96264.78;4986155;28;20208;-69
2023/06/06 04:31:44;;;;;;;17.50;6.07;;;;;;;19.42;47.84;96265.38;4986237;28;20200;-68
2023/06/06 04:34:10;;;;;;;13.40;6.60;;;;;;;19.65;47.66;96257.31;4985727;28;20260;-69
2023/06/06 04:36:40;;;;;;;16.83;6.10;;;;;;;19.71;46.85;96261.34;4986220;28;20458;-69
2023/06/06 04:39:06;;;;;;;22.50;6.47;;;;;;;19.81;46.85;96267.56;4986360;28;20483;-69
2023/06/06 04:41:33;;;;;;;26.90;8.03;;;;;;;19.71;46.83;96264.00;4986382;28;20514;-68
2023/06/06 04:44:02;;;;;;;43.73;8.40;;;;;;;19.79;46.66;96267.69;4985742;28;20509;-69
2023/06/06 04:46:29;;;;;;;37.47;7.30;;;;;;;19.91;46.70;96262.31;4995945;28;20872;-70
2023/06/06 04:48:56;;;;;;;9.43;5.50;;;;;;;19.61;46.95;96262.06;4989901;28;20485;-69
2023/06/06 04:51:29;;;;;;;9.23;5.80;;;;;;;20.18;45.71;96264.50;4989506;28;20706;-70
2023/06/06 04:54:01;;;;;;;6.03;5.43;;;;;;;20.26;45.84;96259.34;4989488;28;20408;-69
2023/06/06 04:56:31;;;;;;;15.00;6.20;;;;;;;20.21;45.62;96266.91;4990342;28;20511;-69
2023/06/06 04:59:06;;;;;;;11.70;6.00;;;;;;;20.22;45.66;96268.56;4989679;28;20439;-69
2023/06/06 05:01:36;;;;;;;17.47;7.00;;;;;;;20.34;45.50;96267.56;4982739;28;20420;-71
2023/06/06 05:04:03;;;;;;;13.30;6.27;;;;;;;20.28;45.45;96268.06;4969438;28;20504;-69
2023/06/06 05:06:31;;;;;;;29.20;8.93;;;;;;;20.52;44.74;96276.63;4969840;28;20467;-68
2023/06/06 05:09:04;;;;;;;8.37;6.37;;;;;;;19.96;45.79;96286.75;4969695;28;20447;-69
2023/06/06 05:11:30;;;;;;;12.63;6.27;;;;;;;19.71;46.95;96272.81;4969572;28;20575;-69
2023/06/06 05:13:56;;;;;;;6.23;5.67;;;;;;;17.87;51.90;96285.44;4969424;28;20420;-70
2023/06/06 05:16:22;;;;;;;15.90;6.07;;;;;;;18.82;50.28;96286.13;4969368;28;20297;-70
2023/06/06 05:18:47;;;;;;;8.40;6.10;;;;;;;19.20;48.08;96281.38;4969172;28;20201;-69
2023/06/06 05:21:14;;;;;;;7.37;5.50;;;;;;;18.63;49.47;96288.50;4969551;28;20423;-69
2023/06/06 05:23:40;;;;;;;7.23;5.80;;;;;;;18.33;50.53;96286.41;4969219;28;20749;-70
2023/06/06 05:26:05;;;;;;;6.80;5.63;;;;;;;18.34;50.23;96282.78;4969633;28;20421;-69
2023/06/06 05:28:31;;;;;;;6.90;5.40;;;;;;;18.82;49.75;96277.31;4973909;28;20200;-70
2023/06/06 05:30:56;;;;;;;9.80;6.23;;;;;;;18.63;49.75;96288.50;4980363;28;20199;-68
2023/06/06 05:33:23;;;;;;;12.43;6.33;;;;;;;18.50;50.83;96287.78;4980482;28;20204;-69
2023/06/06 05:35:48;;;;;;;6.50;5.47;;;;;;;19.38;48.20;96285.22;4978124;28;20169;-69
2023/06/06 05:38:16;;;;;;;7.40;5.60;;;;;;;19.00;48.58;96291.81;4976975;28;20452;-69
2023/06/06 05:40:41;;;;;;;6.20;5.60;;;;;;;18.31;50.59;96291.84;4977399;28;20204;-68
2023/06/06 05:43:07;;;;;;;7.53;6.10;;;;;;;17.85;52.37;96290.00;4972324;28;20449;-67
2023/06/06 05:45:32;;;;;;;6.87;6.27;;;;;;;17.87;51.93;96295.22;4968887;28;20627;-67
2023/06/06 05:47:58;;;;;;;10.83;6.57;;;;;;;19.39;47.92;96297.56;4969067;28;20181;-69
2023/06/06 05:50:24;;;;;;;13.37;7.20;;;;;;;18.22;51.02;96300.53;4971797;28;20829;-70
2023/06/06 05:52:50;;;;;;;9.40;6.60;;;;;;;18.90;50.33;96287.31;4988792;28;20545;-70
2023/06/06 05:55:28;;;;;;;11.03;6.30;;;;;;;19.59;47.94;96287.94;4988208;28;20423;-69
2023/06/06 05:57:55;;;;;;;6.90;6.07;;;;;;;18.73;50.10;96288.63;4986617;28;20511;-66
2023/06/06 06:00:21;;;;;;;6.40;4.90;;;;;;;18.53;51.26;96292.84;4988524;28;21091;-69
2023/06/06 06:02:47;;;;;;;8.90;6.10;;;;;;;19.11;49.87;96295.41;4988222;28;20967;-68
2023/06/06 06:05:12;;;;;;;8.10;5.63;;;;;;;20.17;46.93;96287.59;4987922;28;20443;-68
2023/06/06 06:07:39;;;;;;;9.40;6.80;;;;;;;20.90;44.99;96287.63;4988445;28;20243;-68
2023/06/06 06:10:05;;;;;;;7.90;6.27;;;;;;;21.00;44.72;96287.69;4987903;28;20446;-69
2023/06/06 06:12:30;;;;;;;40.33;8.47;;;;;;;20.33;46.50;96299.66;4988109;28;20499;-69
2023/06/06 06:14:56;;;;;;;7.10;5.30;;;;;;;19.24;49.30;96299.63;4987696;28;20177;-69
2023/06/06 06:17:22;;;;;;;9.67;6.20;;;;;;;18.19;52.53;96304.25;4987984;28;20181;-69
2023/06/06 06:19:48;;;;;;;7.10;5.70;;;;;;;18.79;51.03;96307.63;4988115;28;20275;-69
2023/06/06 06:22:13;;;;;;;6.33;5.73;;;;;;;18.71;51.09;96309.16;4988123;28;20423;-68
2023/06/06 06:24:38;;;;;;;7.03;5.73;;;;;;;18.72;51.74;96311.72;4987546;28;20173;-69
2023/06/06 06:27:04;;;;;;;19.93;7.00;;;;;;;20.05;48.12;96304.63;4987712;28;20177;-69
2023/06/06 06:29:29;;;;;;;6.73;5.00;;;;;;;18.65;51.24;96302.53;4987666;28;20204;-70
2023/06/06 06:31:55;;;;;;;6.00;5.20;;;;;;;20.23;47.61;96307.59;4988068;28;20209;-69
2023/06/06 06:34:20;;;;;;;7.33;5.20;;;;;;;19.85;48.34;96306.28;4987968;28;20498;-68
2023/06/06 06:36:45;;;;;;;5.27;4.60;;;;;;;19.11;50.31;96312.25;4988250;28;20668;-68
2023/06/06 06:39:17;;;;;;;8.63;5.30;;;;;;;19.74;48.32;96312.50;4989161;28;20201;-69
2023/06/06 06:41:43;;;;;;;10.10;6.27;;;;;;;20.22;48.26;96308.53;4988457;28;20265;-67
2023/06/06 06:44:08;;;;;;;9.90;6.10;;;;;;;21.24;45.02;96304.22;4988059;28;21039;-69
2023/06/06 06:46:34;;;;;;;8.43;5.03;;;;;;;20.43;45.98;96304.09;4987400;28;20239;-68
2023/06/06 06:48:59;;;;;;;5.27;4.77;;;;;;;20.73;45.35;96300.63;4988733;28;20192;-68
2023/06/06 06:51:24;;;;;;;6.30;5.30;;;;;;;20.27;46.92;96309.03;4987712;28;20201;-70
2023/06/06 06:53:52;;;;;;;6.23;5.40;;;;;;;19.43;48.23;96309.63;4987987;28;20264;-69
2023/06/06 06:56:18;;;;;;;5.93;5.20;;;;;;;19.62;47.89;96322.28;4988474;28;20188;-70
2023/06/06 06:58:44;;;;;;;18.23;6.10;;;;;;;19.40;48.45;96309.06;4989429;28;21150;-69
2023/06/06 07:01:10;;;;;;;8.67;5.63;;;;;;;20.25;47.01;96313.63;4987807;28;20424;-69
2023/06/06 07:03:36;;;;;;;27.77;8.97;;;;;;;20.40;45.90;96304.31;4988138;28;20200;-67
2023/06/06 07:06:05;;;;;;;5.20;4.53;;;;;;;20.16;46.47;96312.56;4991501;28;20412;-69
2023/06/06 07:08:30;;;;;;;9.60;6.00;;;;;;;19.66;47.46;96313.09;4988619;28;20637;-69
2023/06/06 07:10:55;;;;;;;6.30;5.70;;;;;;;19.75;47.38;96316.00;4989624;28;20471;-70
2023/06/06 07:13:21;;;;;;;8.10;6.07;;;;;;;19.74;47.50;96315.16;4988224;28;20193;-70
2023/06/06 07:15:46;;;;;;;8.10;5.77;;;;;;;19.95;46.90;96317.88;4988437;28;20165;-71
2023/06/06 07:18:12;;;;;;;7.53;5.40;;;;;;;20.15;46.04;96313.56;4988199;28;20718;-69
2023/06/06 07:20:38;;;;;;;12.40;5.57;;;;;;;21.34;44.43;96305.06;4989185;28;20749;-70
2023/06/06 07:23:03;;;;;;;7.80;5.67;;;;;;;20.82;44.81;96303.47;4994893;28;20661;-69
2023/06/06 07:25:29;;;;;;;7.47;5.60;;;;;;;20.47;45.46;96304.66;4986718;28;20682;-69
2023/06/06 07:27:54;;;;;;;8.40;5.30;;;;;;;20.54;46.31;96296.97;4987034;28;20561;-69
2023/06/06 07:30:20;;;;;;;12.07;4.73;;;;;;;21.01;44.88;96300.91;4988333;28;20288;-69
2023/06/06 07:32:46;;;;;;;11.53;5.63;;;;;;;21.34;43.93;96298.91;4987723;28;20635;-69
2023/06/06 07:35:14;;;;;;;6.17;5.60;;;;;;;20.08;46.48;96309.72;4985110;28;20184;-68
2023/06/06 07:37:40;;;;;;;7.17;5.00;;;;;;;20.92;45.16;96302.53;4986455;28;20408;-71
2023/06/06 07:40:10;;;;;;;9.97;4.97;;;;;;;22.08;42.47;96295.78;4985886;28;20451;-70
2023/06/06 07:42:36;;;;;;;6.00;5.30;;;;;;;21.55;43.56;96289.00;4986192;28;20424;-70
2023/06/06 07:45:03;;;;;;;7.40;5.30;;;;;;;20.96;44.10;96299.63;4985977;28;20451;-70
2023/06/06 07:47:28;;;;;;;8.73;4.33;;;;;;;21.67;42.97;96294.22;4986503;28;20188;-70
2023/06/06 07:49:54;;;;;;;5.37;4.87;;;;;;;21.85;42.15;96291.69;4989315;28;20969;-71
2023/06/06 07:52:20;;;;;;;7.70;4.87;;;;;;;22.29;42.02;96290.31;4985435;28;20211;-72
2023/06/06 07:54:45;;;;;;;6.03;4.43;;;;;;;21.82;42.88;96289.31;4985807;28;20189;-69
2023/06/06 07:57:16;;;;;;;8.10;5.00;;;;;;;22.21;41.76;96292.88;4985852;28;20236;-71
2023/06/06 07:59:42;;;;;;;5.17;4.67;;;;;;;21.13;42.29;96297.16;4987212;28;20204;-70
2023/06/06 08:02:08;;;;;;;21.07;5.97;;;;;;;21.40;42.75;96292.19;4987063;28;20466;-69
2023/06/06 08:04:33;;;;;;;11.30;5.80;;;;;;;21.92;41.35;96288.34;4993783;28;21000;-68
2023/06/06 08:06:58;;;;;;;7.20;4.13;;;;;;;22.69;40.27;96283.06;4985865;28;20190;-67
2023/06/06 08:09:24;;;;;;;5.70;4.77;;;;;;;22.91;38.89;96282.69;4985736;28;20232;-68
2023/06/06 08:11:49;;;;;;;5.17;4.00;;;;;;;22.80;38.36;96282.91;4985852;28;20348;-69
2023/06/06 08:14:15;;;;;;;9.50;5.00;;;;;;;22.61;39.91;96286.47;4985409;28;20224;-70
2023/06/06 08:16:41;;;;;;;6.10;4.10;;;;;;;22.74;38.94;96283.47;4986001;28;20200;-69
2023/06/06 08:19:07;;;;;;;4.97;4.17;;;;;;;23.16;38.71;96289.25;4985782;28;20748;-70
2023/06/06 08:21:33;;;;;;;6.80;4.53;;;;;;;22.93;38.31;96291.44;4995997;28;20169;-69
2023/06/06 08:23:58;;;;;;;6.03;4.27;;;;;;;22.68;38.83;96284.91;4996241;28;20423;-69
2023/06/06 08:26:25;;;;;;;5.13;4.10;;;;;;;22.58;39.01;96284.06;4998971;28;20188;-69
2023/06/06 08:28:54;;;;;;;9.20;4.63;;;;;;;22.31;38.25;96291.03;4995368;28;20577;-71
2023/06/06 08:31:20;;;;;;;4.43;4.03;;;;;;;22.39;38.81;96285.81;4991677;28;20463;-71
2023/06/06 08:33:46;;;;;;;10.70;4.43;;;;;;;22.38;38.85;96284.13;4990293;28;20474;-69
2023/06/06 08:36:12;;;;;;;10.37;4.70;;;;;;;21.82;39.73;96289.31;4990522;28;20180;-69
2023/06/06 08:38:38;;;;;;;7.97;5.00;;;;;;;21.93;39.80;96279.34;4990288;28;20270;-71
2023/06/06 08:41:05;;;;;;;8.40;5.73;;;;;;;22.13;39.28;96284.66;4989674;28;20422;-69
2023/06/06 08:43:36;;;;;;;11.37;5.10;;;;;;;22.44;38.78;96276.50;4985529;28;20431;-70
2023/06/06 08:46:02;;;;;;;7.60;4.73;;;;;;;22.52;38.87;96279.31;4988851;28;20949;-72
2023/06/06 08:48:29;;;;;;;6.23;4.90;;;;;;;22.69;38.12;96275.88;4988380;28;20536;-70
2023/06/06 08:50:59;;;;;;;6.83;4.67;;;;;;;22.83;37.84;96274.56;4982393;28;20503;-70
2023/06/06 08:53:25;;;;;;;8.70;4.90;;;;;;;23.09;37.52;96284.66;4969244;28;20421;-69
2023/06/06 08:55:55;;;;;;;7.17;4.70;;;;;;;23.43;36.76;96276.84;4969699;28;20424;-71
2023/06/06 08:58:21;;;;;;;6.13;4.47;;;;;;;24.01;35.41;96273.78;4970088;28;20197;-68
2023/06/06 09:00:49;;;;;;;9.30;5.60;;;;;;;23.37;36.68;96282.81;4981979;28;20420;-68
2023/06/06 09:03:15;;;;;;;7.33;4.83;;;;;;;23.58;36.54;96272.69;4989341;28;21119;-69
2023/06/06 09:05:42;;;;;;;8.27;5.60;;;;;;;24.01;35.62;96275.66;4988531;28;20510;-69
2023/06/06 09:08:07;;;;;;;19.80;6.00;;;;;;;24.22;35.05;96273.47;4988698;28;20422;-72
2023/06/06 09:10:33;;;;;;;6.27;4.90;;;;;;;23.03;36.71;96280.72;4988434;28;20521;-70
2023/06/06 09:12:58;;;;;;;9.27;5.23;;;;;;;23.13;37.52;96283.38;4987376;28;20267;-73
2023/06/06 09:15:25;;;;;;;19.67;5.47;;;;;;;23.43;36.89;96280.41;4988697;28;20702;-70
2023/06/06 09:17:53;;;;;;;9.40;5.10;;;;;;;23.56;36.42;96277.34;4983257;28;20188;-68
2023/06/06 09:20:19;;;;;;;14.80;5.73;;;;;;;24.06;35.96;96270.66;4990436;28;20430;-69
2023/06/06 09:22:49;;;;;;;6.63;5.00;;;;;;;24.30;35.47;96261.97;4988569;28;20432;-71
2023/06/06 09:25:23;;;;;;;9.20;5.50;;;;;;;23.34;36.63;96275.06;4988150;28;20264;-71
2023/06/06 09:27:56;;;;;;;7.10;6.17;;;;;;;23.37;36.72;96280.97;4988400;28;20428;-71
2023/06/06 09:30:24;;;;;;;7.27;5.30;;;;;;;24.17;35.26;96267.75;4987961;28;20427;-72
2023/06/06 09:33:01;;;;;;;6.77;5.20;;;;;;;24.41;34.40;96268.94;4987243;28;20416;-73
2023/06/06 09:35:36;;;;;;;7.03;4.43;;;;;;;24.88;33.53;96265.91;4988272;28;20782;-70
2023/06/06 09:38:15;;;;;;;11.63;5.80;;;;;;;24.54;33.66;96255.97;4988542;28;20419;-72
2023/06/06 09:40:47;;;;;;;10.83;7.67;;;;;;;24.18;35.19;96264.06;4988487;28;21114;-68
2023/06/06 09:43:15;;;;;;;11.87;9.43;;;;;;;23.72;36.24;96262.41;4987994;28;20451;-68
2023/06/06 09:46:00;;;;;;;7.10;6.50;;;;;;;23.68;35.96;96267.25;4987669;28;20427;-70
2023/06/06 09:48:27;;;;;;;9.20;5.10;;;;;;;23.41;36.39;96260.94;4988057;28;20529;-71
2023/06/06 09:50:53;;;;;;;33.47;18.03;;;;;;;23.38;34.50;96255.88;4988085;28;20452;-69
2023/06/06 09:53:23;;;;;;;20.33;8.73;;;;;;;23.78;34.59;96251.97;4988574;28;20415;-68
2023/06/06 09:55:49;;;;;;;21.67;6.80;;;;;;;24.28;34.24;96248.72;4987748;28;20431;-68
2023/06/06 09:58:16;;;;;;;12.07;5.23;;;;;;;23.66;35.16;96254.00;4987834;28;20484;-69
2023/06/06 10:00:43;;;;;;;18.70;5.73;;;;;;;24.18;33.44;96242.59;4987484;28;20415;-75
2023/06/06 10:03:11;;;;;;;11.80;5.00;;;;;;;24.23;33.64;96253.69;4987299;28;20428;-70
2023/06/06 10:05:37;;;;;;;54.80;10.77;;;;;;;24.09;33.75;96235.50;4987052;28;20415;-69
2023/06/06 10:08:04;;;;;;;10.50;5.50;;;;;;;24.20;33.12;96240.59;4987231;28;20424;-72
2023/06/06 10:10:31;;;;;;;4.80;4.33;;;;;;;23.73;32.92;96240.84;4987023;28;20452;-72
2023/06/06 10:12:57;;;;;;;6.80;5.00;;;;;;;23.56;33.09;96242.53;4987513;28;20423;-73
2023/06/06 10:15:23;;;;;;;10.90;5.23;;;;;;;24.16;31.83;96231.19;4987490;28;20470;-71
2023/06/06 10:17:51;;;;;;;5.00;4.50;;;;;;;24.53;29.99;96238.19;4986611;28;20428;-73
2023/06/06 10:20:16;;;;;;;7.23;4.47;;;;;;;24.79;30.12;96237.34;4987217;28;20416;-73
2023/06/06 10:22:42;;;;;;;7.60;4.40;;;;;;;24.94;29.28;96233.03;4988079;28;20482;-74
2023/06/06 10:25:13;;;;;;;4.40;3.73;;;;;;;25.14;29.22;96230.97;4985492;28;20234;-72
2023/06/06 10:27:39;;;;;;;4.80;4.07;;;;;;;25.06;29.82;96225.53;4987339;28;20884;-74
2023/06/06 10:30:36;;;;;;;5.80;4.27;;;;;;;24.58;30.39;96227.81;4986795;28;20502;-71
2023/06/06 10:33:06;;;;;;;6.00;4.70;;;;;;;23.58;31.97;96237.84;4987078;28;20838;-72
2023/06/06 10:35:32;;;;;;;10.40;4.87;;;;;;;23.95;31.85;96231.50;4987405;28;20492;-73
2023/06/06 10:38:02;;;;;;;9.30;4.30;;;;;;;24.43;30.96;96221.34;4987786;28;20916;-73
2023/06/06 10:40:40;;;;;;;31.27;6.70;;;;;;;24.75;30.44;96220.69;4988055;28;20490;-72
2023/06/06 10:43:05;;;;;;;10.97;4.83;;;;;;;24.25;30.60;96222.22;4988210;28;20929;-69
2023/06/06 10:45:42;;;;;;;4.87;4.03;;;;;;;23.93;31.37;96220.13;4987529;28;20483;-70
2023/06/06 10:48:08;;;;;;;5.10;4.60;;;;;;;23.64;32.39;96214.97;4987366;28;20169;-70
2023/06/06 10:50:33;;;;;;;5.00;4.60;;;;;;;23.72;32.63;96215.06;4987355;28;20567;-72
2023/06/06 10:53:05;;;;;;;13.97;4.77;;;;;;;24.23;32.85;96220.69;4988063;28;20211;-72
2023/06/06 10:55:30;;;;;;;6.90;5.20;;;;;;;24.59;32.17;96217.94;4987095;28;20176;-70
2023/06/06 10:58:10;;;;;;;8.80;4.97;;;;;;;24.89;31.03;96214.72;4987133;28;20850;-71
2023/06/06 11:00:40;;;;;;;7.40;6.27;;;;;;;24.77;30.29;96209.81;4987493;28;20230;-73
2023/06/06 11:03:10;;;;;;;6.37;4.67;;;;;;;24.67;31.10;96216.13;4987502;28;20412;-73
2023/06/06 11:06:00;;;;;;;7.63;5.30;;;;;;;24.70;30.18;96206.94;4987073;28;20565;-70
2023/06/06 11:08:40;;;;;;;7.20;4.60;;;;;;;25.15;29.95;96206.63;4987276;28;20424;-72
2023/06/06 11:11:15;;;;;;;16.00;5.30;;;;;;;25.01;30.14;96215.28;4987304;28;20456;-68
2023/06/06 11:13:51;;;;;;;10.00;5.10;;;;;;;24.69;28.84;96208.78;4986902;28;20416;-68
2023/06/06 11:16:37;;;;;;;9.83;5.17;;;;;;;24.67;29.70;96210.78;4987070;28;20408;-69
2023/06/06 11:19:11;;;;;;;7.83;4.70;;;;;;;24.38;30.41;96196.81;4983201;28;20582;-68
2023/06/06 11:21:37;;;;;;;9.53;5.50;;;;;;;24.66;29.90;96202.88;4987089;28;20936;-69
2023/06/06 11:24:04;;;;;;;10.70;5.07;;;;;;;24.78;29.75;96193.56;4986663;28;20443;-69
2023/06/06 11:26:29;;;;;;;6.87;4.83;;;;;;;24.93;29.34;96202.69;4986663;28;20439;-74
2023/06/06 11:28:56;;;;;;;7.73;4.73;;;;;;;25.21;28.36;96197.13;4986904;28;20985;-72
2023/06/06 11:31:26;;;;;;;9.90;4.80;;;;;;;25.38;27.75;96195.31;4986815;28;20220;-72